createdAt,value
2022-11-03T00:01:18.024Z,7.53
2022-11-03T00:06:19.731Z,7.55
2022-11-03T00:11:21.465Z,7.58
2022-11-03T00:16:23.126Z,7.74
2022-11-03T00:21:24.817Z,7.43
2022-11-03T00:26:27.735Z,7.45
2022-11-03T00:31:30.751Z,7.38
2022-11-03T00:36:34.455Z,7.22
2022-11-03T00:41:36.201Z,7.10
2022-11-03T00:46:37.891Z,7.04
2022-11-03T00:51:39.573Z,7.11
2022-11-03T00:56:41.697Z,7.12
2022-11-03T01:01:48.010Z,7.08
2022-11-03T01:06:50.731Z,7.14
2022-11-03T01:12:12.799Z,7.48
2022-11-03T01:17:18.313Z,7.27
2022-11-03T01:22:20.233Z,7.23
2022-11-03T01:27:23.087Z,7.52
2022-11-03T01:32:24.739Z,7.28
2022-11-03T01:37:26.745Z,7.37
2022-11-03T01:42:28.413Z,7.53
2022-11-03T01:47:32.228Z,7.48
2022-11-03T01:52:52.114Z,7.63
2022-11-03T01:58:02.859Z,7.58
2022-11-03T02:03:04.890Z,7.72
2022-11-03T02:13:21.185Z,7.66
2022-11-03T02:18:26.319Z,7.56
2022-11-03T02:23:47.921Z,7.55
2022-11-03T02:28:49.673Z,7.54
2022-11-03T02:34:06.702Z,7.57
2022-11-03T02:39:29.103Z,7.59
2022-11-03T02:44:32.457Z,7.47
2022-11-03T02:49:46.501Z,7.36
2022-11-03T02:54:48.255Z,7.69
2022-11-03T02:59:57.025Z,7.62
2022-11-03T03:05:00.452Z,7.73
2022-11-03T03:10:12.836Z,7.64
2022-11-03T03:15:14.626Z,7.66
2022-11-03T03:20:41.301Z,7.10
2022-11-03T03:25:47.927Z,6.92
2022-11-03T03:30:49.578Z,6.91
2022-11-03T03:35:51.379Z,7.34
2022-11-03T03:40:54.306Z,7.14
2022-11-03T03:45:57.467Z,7.26
2022-11-03T03:50:59.150Z,7.09
2022-11-03T03:56:00.850Z,7.10
2022-11-03T04:01:02.756Z,7.29
2022-11-03T04:06:04.598Z,7.32
2022-11-03T04:11:24.839Z,7.22
2022-11-03T04:16:45.296Z,7.19
2022-11-03T04:22:05.657Z,7.17
2022-11-03T04:27:29.295Z,7.24
2022-11-03T04:32:30.997Z,7.18
2022-11-03T04:37:32.674Z,7.10
2022-11-03T04:42:34.504Z,7.07
2022-11-03T04:47:36.160Z,7.04
2022-11-03T04:52:37.845Z,6.86
2022-11-03T04:57:40.597Z,6.87
2022-11-03T05:02:42.830Z,6.96
2022-11-03T05:07:44.525Z,6.97
2022-11-03T05:12:49.553Z,6.86
2022-11-03T05:17:51.373Z,6.62
2022-11-03T05:22:53.058Z,6.65
2022-11-03T05:27:54.719Z,6.96
2022-11-03T05:32:56.767Z,7.01
2022-11-03T05:37:58.848Z,7.08
2022-11-03T05:43:01.518Z,7.20
2022-11-03T05:48:05.864Z,7.44
2022-11-03T05:53:16.669Z,7.51
2022-11-03T05:58:37.226Z,7.64
2022-11-03T06:03:38.946Z,7.56
2022-11-03T06:08:43.204Z,7.49
2022-11-03T06:13:47.675Z,7.59
2022-11-03T06:18:49.346Z,7.67
2022-11-03T06:23:51.195Z,7.72
2022-11-03T06:28:53.001Z,7.91
2022-11-03T06:33:55.204Z,8.10
2022-11-03T06:38:57.918Z,8.32
2022-11-03T06:44:01.823Z,8.43
2022-11-03T06:49:05.700Z,8.60
2022-11-03T06:54:09.036Z,8.82
2022-11-03T06:59:10.858Z,8.89
2022-11-03T07:04:18.791Z,9.24
2022-11-03T07:09:22.548Z,9.27
2022-11-03T07:14:25.297Z,9.51
2022-11-03T07:19:29.491Z,9.52
2022-11-03T07:24:32.876Z,9.59
2022-11-03T07:29:34.554Z,9.62
2022-11-03T07:34:36.176Z,9.75
2022-11-03T07:39:38.224Z,10.23
2022-11-03T07:44:39.853Z,10.36
2022-11-03T07:49:41.515Z,10.93
2022-11-03T07:54:43.158Z,10.66
2022-11-03T07:59:49.364Z,11.05
2022-11-03T08:04:51.023Z,11.32
2022-11-03T08:09:52.696Z,11.36
2022-11-03T08:14:54.318Z,11.64
2022-11-03T08:19:55.966Z,11.62
2022-11-03T08:24:57.635Z,11.78
2022-11-03T08:29:59.310Z,12.36
2022-11-03T08:35:00.939Z,13.09
2022-11-03T08:40:02.624Z,14.21
2022-11-03T08:45:04.580Z,14.29
2022-11-03T08:50:06.707Z,14.78
2022-11-03T08:55:08.878Z,14.91
2022-11-03T09:00:11.369Z,14.79
2022-11-03T09:05:13.080Z,15.16
2022-11-03T09:15:19.308Z,18.47
2022-11-03T09:20:21.141Z,19.87
2022-11-03T09:25:22.826Z,18.02
2022-11-03T09:30:24.479Z,19.23
2022-11-03T09:35:26.156Z,20.89
2022-11-03T09:40:27.844Z,23.14
2022-11-03T09:45:29.590Z,23.92
2022-11-03T09:50:31.463Z,23.94
2022-11-03T09:55:33.254Z,22.93
2022-11-03T10:00:34.929Z,23.96
2022-11-03T10:05:36.567Z,24.99
2022-11-03T10:10:38.775Z,23.63
2022-11-03T10:15:42.082Z,23.70
2022-11-03T10:20:43.773Z,25.70
2022-11-03T10:25:45.780Z,28.60
2022-11-03T10:31:17.025Z,30.43
2022-11-03T10:36:18.596Z,29.65
2022-11-03T10:41:20.904Z,25.13
2022-11-03T10:46:44.643Z,22.09
2022-11-03T10:51:45.470Z,22.34
2022-11-03T10:56:47.207Z,20.71
2022-11-03T11:01:49.001Z,20.36
2022-11-03T11:06:51.067Z,20.13
2022-11-03T11:12:19.115Z,18.93
2022-11-03T11:17:41.571Z,19.06
2022-11-03T11:22:43.450Z,20.32
2022-11-03T11:27:44.936Z,20.49
2022-11-03T11:32:46.551Z,20.79
2022-11-03T11:37:48.249Z,20.98
2022-11-03T11:43:10.972Z,20.31
2022-11-03T11:48:19.420Z,20.45
2022-11-03T11:53:24.008Z,21.97
2022-11-03T11:58:32.072Z,22.63
2022-11-03T12:03:37.726Z,21.15
2022-11-03T12:08:39.532Z,19.71
2022-11-03T12:13:48.148Z,19.01
2022-11-03T12:18:50.778Z,18.31
2022-11-03T12:23:52.499Z,17.68
2022-11-03T12:28:54.192Z,17.55
2022-11-03T12:33:55.826Z,17.89
2022-11-03T12:38:57.461Z,17.92
2022-11-03T12:43:59.117Z,18.07
2022-11-03T12:49:00.799Z,17.94
2022-11-03T12:54:02.476Z,17.83
2022-11-03T12:59:04.154Z,17.56
2022-11-03T13:04:06.139Z,17.08
2022-11-03T13:09:07.797Z,16.82
2022-11-03T13:14:09.505Z,16.67
2022-11-03T13:19:11.166Z,16.20
2022-11-03T13:24:12.869Z,16.14
2022-11-03T13:29:14.561Z,16.27
2022-11-03T13:34:16.191Z,16.09
2022-11-03T13:39:17.890Z,15.95
2022-11-03T13:44:19.583Z,15.96
2022-11-03T13:49:59.257Z,15.97
2022-11-03T14:00:06.312Z,15.67
2022-11-03T14:05:14.220Z,15.50
2022-11-03T14:10:15.856Z,15.95
2022-11-03T14:15:17.914Z,15.89
2022-11-03T14:20:19.646Z,15.79
2022-11-03T14:25:21.467Z,15.45
2022-11-03T14:30:23.100Z,15.24
2022-11-03T14:35:24.766Z,14.95
2022-11-03T14:40:45.011Z,14.97
2022-11-03T14:45:46.760Z,14.98
2022-11-03T14:50:48.503Z,14.54
2022-11-03T14:55:50.244Z,14.94
2022-11-03T15:00:51.979Z,14.19
2022-11-03T15:05:55.513Z,14.01
2022-11-03T15:10:57.144Z,13.81
2022-11-03T15:15:58.826Z,14.41
2022-11-03T15:21:00.783Z,14.82
2022-11-03T15:26:02.453Z,14.73
2022-11-03T15:31:04.110Z,13.69
2022-11-03T15:36:07.516Z,13.61
2022-11-03T15:41:19.358Z,13.64
2022-11-03T15:46:21.011Z,13.64
2022-11-03T15:51:22.726Z,13.67
2022-11-03T15:56:24.387Z,13.91
2022-11-03T16:01:26.121Z,13.91
2022-11-03T16:06:53.941Z,13.73
2022-11-03T16:11:49.509Z,13.68
2022-11-03T16:16:51.159Z,14.02
2022-11-03T16:21:52.840Z,14.13
2022-11-03T16:26:54.524Z,14.07
2022-11-03T16:31:57.821Z,13.59
2022-11-03T16:37:00.721Z,13.20
2022-11-03T16:42:03.317Z,13.65
2022-11-03T16:47:05.351Z,13.54
2022-11-03T16:52:07.838Z,13.17
2022-11-03T16:57:09.512Z,12.86
2022-11-03T17:02:16.114Z,13.04
2022-11-03T17:07:18.243Z,12.96
2022-11-03T17:12:19.935Z,12.96
2022-11-03T17:17:21.608Z,12.83
2022-11-03T17:22:23.280Z,12.82
2022-11-03T17:27:49.053Z,12.94
2022-11-03T17:32:55.815Z,12.69
2022-11-03T17:37:57.470Z,12.72
2022-11-03T17:42:59.145Z,12.67
2022-11-03T17:48:00.783Z,12.62
2022-11-03T17:53:02.473Z,12.67
2022-11-03T17:58:04.833Z,12.32
2022-11-03T18:03:08.944Z,12.27
2022-11-03T18:08:11.305Z,12.54
2022-11-03T18:13:20.115Z,12.66
2022-11-03T18:18:33.198Z,12.51
2022-11-03T18:23:34.960Z,12.46
2022-11-03T18:28:36.612Z,12.61
2022-11-03T18:33:38.233Z,12.87
2022-11-03T18:38:39.915Z,12.85
2022-11-03T18:43:41.556Z,12.54
2022-11-03T18:48:43.194Z,12.58
2022-11-03T18:53:44.970Z,12.65
2022-11-03T18:58:46.653Z,12.45
2022-11-03T19:03:48.439Z,12.64
2022-11-03T19:08:50.678Z,12.41
2022-11-03T19:13:52.351Z,12.59
2022-11-03T19:18:54.014Z,12.46
2022-11-03T19:23:58.480Z,12.78
2022-11-03T19:29:01.953Z,12.82
2022-11-03T19:34:03.627Z,13.32
2022-11-03T19:39:33.224Z,13.08
2022-11-03T19:49:36.473Z,13.15
2022-11-03T19:54:38.262Z,12.61
2022-11-03T19:59:41.442Z,12.86
2022-11-03T20:04:46.663Z,12.02
2022-11-03T20:09:48.335Z,12.06
2022-11-03T20:14:50.039Z,12.19
2022-11-03T20:19:53.230Z,12.59
2022-11-03T20:24:57.547Z,12.80
2022-11-03T20:29:59.254Z,12.62
2022-11-03T20:37:52.243Z,12.89
2022-11-03T20:42:54.857Z,13.08
2022-11-03T20:47:56.794Z,12.91
2022-11-03T20:53:00.427Z,12.95
2022-11-03T20:58:02.341Z,13.40
2022-11-03T21:03:10.559Z,12.65
2022-11-03T21:08:13.982Z,12.67
2022-11-03T21:13:16.385Z,13.16
2022-11-03T21:18:36.802Z,12.59
2022-11-03T21:23:39.966Z,12.85
2022-11-03T21:28:41.876Z,13.14
2022-11-03T21:33:43.727Z,14.36
2022-11-03T21:38:46.870Z,14.34
2022-11-03T21:44:07.078Z,14.46
2022-11-03T21:49:27.685Z,14.28
2022-11-03T21:54:43.265Z,14.32
2022-11-03T21:59:45.142Z,14.44
2022-11-03T22:04:46.919Z,14.39
2022-11-03T22:09:50.128Z,14.37
2022-11-03T22:15:10.374Z,14.37
2022-11-03T22:20:30.692Z,14.20
2022-11-03T22:25:52.292Z,14.01
2022-11-03T22:31:12.568Z,13.72
2022-11-03T22:36:23.364Z,13.76
2022-11-03T22:41:45.001Z,13.86
2022-11-03T22:46:46.748Z,13.64
2022-11-03T22:51:48.517Z,13.69
2022-11-03T22:56:51.948Z,13.58
2022-11-03T23:01:54.047Z,13.39
2022-11-03T23:06:56.008Z,13.65
2022-11-03T23:11:59.148Z,13.81
2022-11-03T23:17:00.915Z,13.54
2022-11-03T23:22:02.736Z,13.55
2022-11-03T23:27:05.905Z,13.53
2022-11-03T23:32:07.696Z,13.73
2022-11-03T23:37:09.513Z,14.02
2022-11-03T23:42:12.643Z,13.75
2022-11-03T23:47:32.971Z,14.05
2022-11-03T23:52:34.759Z,13.40
2022-11-03T23:57:56.344Z,13.43
